首页
METAR-TAF:

METAR-TAF

机场 :

卡門城, 墨西哥

纬度: 18-39N, 经度: 091-48W, 海拔: 2米

当前天气观测

该预报发布于9小时和41分钟前的00:48 UTC
风速12节,风向
温度 27°C
湿度 79%
气压 1011 hPa
能見度: 11.3公里
散云层高于1500英尺

METAR: MMCE 020048Z 01012KT 7SM SCT015 27/23 A2985 RMK 8/100

时间: 04:29 (10:29 UTC)

预报

该预报发布于5小时和13分钟前的05:16 UTC
预报有效从02日的 06点(UTC)到 03日的 06点(UTC)
风速12节,风向
能見度: 10公里
散云层高于1500英尺
短暂存在
从 02日的 10点(UTC)到 02日的 14点(UTC)
多云层高于1500英尺
从 02日的 1400点(UTC)
风速10节,风向东转东南
能見度: 10公里
散云层高于3000英尺
成为
从 02日的 20点(UTC)到 02日的 21点(UTC)
风速14节,风向北转西北
从 03日的 0000点(UTC)
风速20节,风向北转东北
能見度: 9.7公里
多云层高于1500英尺

TAF: MMCE 020516Z 0206/0306 01012KT P6SM SCT015 TEMPO 0210/0214 BKN015 FM021400 12010KT P6SM SCT030 BECMG 0220/0221 34014KT FM030000 03020KT 6SM HZ BKN015

超过4000个机场的气象观测和天气预报(METAR&TAF报告)。

可查询的气象台以黄色和红色小点在地图上表示。

将鼠标移到小点上方,可查看气象台名称。

然后点击查看天气观测和预报。

如需切换地图:点击带黑十字的绿色按钮放大地图;点击带横线的绿色按钮缩小地图;或者点击绿色箭头查看邻近地区的地图。


METAR-TAF: